createdAt,value
2018-03-03T00:01:14.078Z,78.50
2018-03-03T00:03:44.100Z,80.87
2018-03-03T00:06:13.375Z,78.90
2018-03-03T00:08:42.641Z,93.10
2018-03-03T00:11:11.926Z,90.23
2018-03-03T00:13:41.170Z,97.93
2018-03-03T00:16:10.634Z,89.43
2018-03-03T00:18:39.893Z,84.20
2018-03-03T00:21:09.356Z,74.37
2018-03-03T00:23:38.658Z,85.57
2018-03-03T00:26:07.934Z,83.43
2018-03-03T00:28:37.377Z,73.63
2018-03-03T00:31:06.659Z,76.47
2018-03-03T00:33:36.061Z,77.47
2018-03-03T00:36:05.323Z,79.57
2018-03-03T00:38:35.358Z,78.87
2018-03-03T00:41:04.634Z,81.00
2018-03-03T00:43:33.885Z,90.57
2018-03-03T00:46:03.130Z,81.70
2018-03-03T00:48:32.422Z,85.10
2018-03-03T00:51:01.732Z,75.13
2018-03-03T00:53:31.184Z,85.27
2018-03-03T00:56:00.533Z,81.03
2018-03-03T00:58:29.790Z,93.13
2018-03-03T01:00:59.085Z,68.90
2018-03-03T01:03:28.381Z,80.73
2018-03-03T01:05:57.733Z,80.83
2018-03-03T01:08:27.025Z,74.00
2018-03-03T01:10:56.286Z,85.20
2018-03-03T01:13:25.599Z,77.47
2018-03-03T01:15:54.884Z,89.70
2018-03-03T01:18:24.195Z,81.20
2018-03-03T01:20:53.456Z,80.50
2018-03-03T01:23:22.731Z,75.03
2018-03-03T01:25:51.998Z,79.03
2018-03-03T01:28:21.294Z,85.93
2018-03-03T01:30:50.597Z,85.57
2018-03-03T01:33:19.890Z,83.17
2018-03-03T01:35:49.367Z,77.03
2018-03-03T01:38:19.410Z,89.37
2018-03-03T01:40:48.708Z,76.27
2018-03-03T01:43:18.043Z,74.87
2018-03-03T01:45:47.305Z,79.43
2018-03-03T01:48:16.570Z,84.73
2018-03-03T01:50:45.941Z,72.10
2018-03-03T01:53:15.347Z,82.50
2018-03-03T01:55:44.639Z,79.70
2018-03-03T01:58:13.946Z,85.60
2018-03-03T02:00:43.228Z,75.50
2018-03-03T02:03:12.520Z,82.17
2018-03-03T02:05:41.769Z,83.03
2018-03-03T02:08:11.040Z,82.00
2018-03-03T02:10:40.379Z,86.43
2018-03-03T02:13:09.656Z,73.43
2018-03-03T02:15:38.909Z,77.60
2018-03-03T02:18:08.366Z,76.33
2018-03-03T02:20:37.618Z,87.63
2018-03-03T02:23:07.174Z,66.90
2018-03-03T02:25:36.422Z,83.50
2018-03-03T02:28:06.493Z,81.20
2018-03-03T02:30:36.645Z,88.20
2018-03-03T02:33:05.929Z,78.10
2018-03-03T02:35:35.353Z,82.27
2018-03-03T02:38:04.811Z,78.53
2018-03-03T02:40:34.082Z,80.80
2018-03-03T02:43:04.119Z,79.50
2018-03-03T02:45:33.427Z,80.77
2018-03-03T02:48:02.703Z,79.83
2018-03-03T02:50:31.953Z,71.80
2018-03-03T02:53:01.372Z,83.83
2018-03-03T02:55:30.672Z,73.57
2018-03-03T02:57:59.983Z,80.73
2018-03-03T03:00:29.241Z,70.23
2018-03-03T03:02:58.573Z,90.27
2018-03-03T03:05:27.835Z,82.23
2018-03-03T03:07:57.062Z,82.23
2018-03-03T03:10:26.333Z,97.00
2018-03-03T03:12:55.580Z,80.57
2018-03-03T03:15:24.838Z,87.73
2018-03-03T03:17:54.117Z,74.07
2018-03-03T03:20:23.371Z,86.50
2018-03-03T03:22:53.380Z,85.67
2018-03-03T03:25:22.633Z,102.43
2018-03-03T03:27:51.919Z,74.23
2018-03-03T03:30:21.168Z,82.37
2018-03-03T03:32:50.450Z,76.13
2018-03-03T03:35:19.709Z,74.63
2018-03-03T03:37:48.991Z,76.80
2018-03-03T03:40:18.260Z,81.33
2018-03-03T03:42:47.659Z,75.07
2018-03-03T03:45:16.943Z,86.10
2018-03-03T03:47:46.961Z,77.03
2018-03-03T03:50:16.244Z,78.03
2018-03-03T03:52:45.494Z,81.60
2018-03-03T03:55:14.900Z,91.03
2018-03-03T03:57:44.187Z,99.33
2018-03-03T04:00:13.466Z,88.10
2018-03-03T04:02:42.772Z,89.60
2018-03-03T04:05:12.167Z,99.53
2018-03-03T04:07:42.190Z,84.00
2018-03-03T04:10:11.463Z,81.03
2018-03-03T04:12:40.740Z,97.13
2018-03-03T04:15:10.011Z,96.23
2018-03-03T04:17:39.281Z,100.33
2018-03-03T04:20:09.345Z,84.00
2018-03-03T04:22:38.836Z,84.80
2018-03-03T04:25:08.068Z,86.87
2018-03-03T04:27:37.494Z,80.07
2018-03-03T04:30:06.954Z,87.40
2018-03-03T04:32:36.332Z,80.40
2018-03-03T04:35:06.424Z,79.50
2018-03-03T04:37:35.873Z,94.90
2018-03-03T04:40:05.145Z,86.10
2018-03-03T04:42:34.397Z,81.77
2018-03-03T04:45:03.685Z,77.33
2018-03-03T04:47:33.703Z,88.33
2018-03-03T04:50:02.991Z,82.27
2018-03-03T04:52:32.251Z,79.13
2018-03-03T04:55:01.644Z,87.00
2018-03-03T04:57:30.885Z,81.70
2018-03-03T05:03:09.881Z,88.77
2018-03-03T05:08:47.353Z,115.83
2018-03-03T05:11:16.654Z,96.23
2018-03-03T05:13:45.911Z,76.07
2018-03-03T05:16:20.767Z,81.97
2018-03-03T05:22:11.552Z,98.47
2018-03-03T05:27:56.434Z,69.83
2018-03-03T05:30:31.064Z,78.07
2018-03-03T05:33:05.966Z,77.83
2018-03-03T05:35:39.138Z,87.80
2018-03-03T05:41:15.430Z,73.80
2018-03-03T05:43:50.094Z,86.77
2018-03-03T05:49:26.574Z,72.50
2018-03-03T05:55:14.242Z,87.30
2018-03-03T05:57:49.013Z,71.23
2018-03-03T06:00:23.788Z,91.33
2018-03-03T06:02:59.042Z,78.23
2018-03-03T06:05:32.194Z,84.93
2018-03-03T06:08:01.466Z,73.07
2018-03-03T06:10:32.754Z,84.73
2018-03-03T06:13:02.805Z,88.97
2018-03-03T06:15:32.107Z,87.07
2018-03-03T06:18:01.391Z,73.30
2018-03-03T06:20:30.641Z,82.97
2018-03-03T06:22:59.919Z,76.70
2018-03-03T06:25:29.315Z,89.80
2018-03-03T06:27:58.614Z,68.47
2018-03-03T06:30:27.876Z,84.67
2018-03-03T06:32:57.123Z,85.47
2018-03-03T06:35:26.412Z,81.57
2018-03-03T06:37:55.733Z,81.77
2018-03-03T06:40:24.996Z,90.03
2018-03-03T06:42:55.112Z,81.43
2018-03-03T06:45:25.155Z,74.93
2018-03-03T06:47:54.418Z,101.43
2018-03-03T06:50:23.758Z,92.47
2018-03-03T06:52:53.038Z,122.50
2018-03-03T06:55:22.321Z,95.03
2018-03-03T06:57:51.818Z,113.40
2018-03-03T07:00:22.057Z,83.73
2018-03-03T07:02:51.336Z,93.50
2018-03-03T07:05:20.573Z,85.83
2018-03-03T07:07:49.863Z,86.63
2018-03-03T07:10:19.140Z,91.97
2018-03-03T07:12:48.398Z,85.37
2018-03-03T07:15:21.545Z,79.93
2018-03-03T07:17:50.980Z,104.20
2018-03-03T07:20:20.256Z,87.63
2018-03-03T07:22:50.303Z,92.90
2018-03-03T07:25:19.579Z,111.87
2018-03-03T07:27:49.612Z,91.30
2018-03-03T07:30:18.908Z,76.43
2018-03-03T07:32:48.347Z,100.17
2018-03-03T07:35:17.765Z,91.83
2018-03-03T07:37:47.028Z,90.33
2018-03-03T07:40:16.302Z,96.40
2018-03-03T07:42:45.581Z,95.27
2018-03-03T07:45:14.861Z,87.63
2018-03-03T07:47:44.150Z,107.33
2018-03-03T07:50:13.413Z,97.63
2018-03-03T07:52:43.489Z,116.50
2018-03-03T07:55:12.839Z,94.43
2018-03-03T07:57:42.876Z,87.53
2018-03-03T08:00:12.151Z,89.27
2018-03-03T08:02:41.514Z,92.47
2018-03-03T08:05:10.818Z,98.53
2018-03-03T08:07:40.264Z,106.50
2018-03-03T08:10:09.481Z,98.10
2018-03-03T08:12:38.858Z,89.33
2018-03-03T08:15:09.500Z,119.33
2018-03-03T08:17:39.540Z,110.70
2018-03-03T08:20:08.951Z,96.40
2018-03-03T08:22:38.378Z,105.53
2018-03-03T08:25:07.629Z,96.20
2018-03-03T08:27:36.905Z,103.20
2018-03-03T08:30:06.188Z,88.83
2018-03-03T08:32:35.438Z,88.43
2018-03-03T08:35:05.509Z,111.70
2018-03-03T08:37:34.796Z,99.57
2018-03-03T08:40:04.110Z,103.40
2018-03-03T08:42:33.366Z,94.67
2018-03-03T08:45:02.649Z,95.30
2018-03-03T08:47:31.942Z,100.30
2018-03-03T08:50:01.241Z,110.60
2018-03-03T08:52:30.523Z,78.43
2018-03-03T08:54:59.801Z,84.93
2018-03-03T08:57:29.109Z,95.97
2018-03-03T08:59:59.301Z,98.60
2018-03-03T09:02:29.316Z,96.23
2018-03-03T09:04:58.599Z,102.37
2018-03-03T09:07:27.860Z,101.50
2018-03-03T09:09:57.283Z,102.37
2018-03-03T09:12:27.362Z,87.83
2018-03-03T09:14:56.627Z,88.43
2018-03-03T09:17:25.916Z,91.97
2018-03-03T09:19:55.155Z,114.60
2018-03-03T09:22:24.421Z,108.80
2018-03-03T09:24:53.710Z,101.10
2018-03-03T09:27:23.098Z,98.67
2018-03-03T09:29:52.359Z,82.50
2018-03-03T09:32:21.658Z,94.93
2018-03-03T09:34:50.961Z,106.30
2018-03-03T09:37:20.240Z,104.50
2018-03-03T09:39:50.295Z,111.93
2018-03-03T09:42:19.579Z,103.00
2018-03-03T09:44:48.874Z,97.23
2018-03-03T09:47:18.475Z,95.47
2018-03-03T09:49:47.808Z,106.30
2018-03-03T09:52:17.103Z,90.97
2018-03-03T09:54:46.385Z,102.97
2018-03-03T09:57:16.438Z,89.50
2018-03-03T09:59:45.675Z,94.90
2018-03-03T10:02:14.993Z,105.03
2018-03-03T10:04:44.279Z,111.50
2018-03-03T10:07:13.788Z,87.13
2018-03-03T10:09:43.108Z,112.03
2018-03-03T10:12:12.475Z,106.63
2018-03-03T10:14:41.779Z,114.70
2018-03-03T10:17:11.154Z,90.53
2018-03-03T10:19:40.434Z,119.90
2018-03-03T10:22:09.672Z,105.10
2018-03-03T10:24:39.048Z,103.70
2018-03-03T10:27:08.595Z,88.20
2018-03-03T10:29:37.896Z,92.53
2018-03-03T10:32:07.357Z,90.73
2018-03-03T10:34:36.829Z,91.60
2018-03-03T10:37:06.926Z,92.20
2018-03-03T10:39:36.302Z,95.10
2018-03-03T10:42:05.613Z,116.00
2018-03-03T10:44:34.917Z,93.97
2018-03-03T10:47:04.228Z,109.23
2018-03-03T10:49:33.495Z,105.63
2018-03-03T10:52:02.796Z,111.10
2018-03-03T10:54:32.271Z,94.60
2018-03-03T10:57:01.540Z,98.23
2018-03-03T10:59:30.847Z,90.07
2018-03-03T11:02:00.099Z,90.23
2018-03-03T11:04:29.412Z,87.33
2018-03-03T11:06:59.264Z,92.47
2018-03-03T11:09:28.537Z,93.63
2018-03-03T11:11:57.804Z,99.20
2018-03-03T11:14:27.306Z,109.73
2018-03-03T11:16:57.348Z,95.23
2018-03-03T11:19:26.611Z,95.70
2018-03-03T11:21:55.873Z,97.90
2018-03-03T11:24:25.153Z,94.17
2018-03-03T11:26:54.428Z,113.63
2018-03-03T11:29:24.443Z,108.37
2018-03-03T11:31:53.710Z,102.50
2018-03-03T11:34:23.014Z,90.20
2018-03-03T11:36:52.269Z,110.37
2018-03-03T11:39:21.579Z,92.80
2018-03-03T11:41:50.810Z,85.50
2018-03-03T11:44:20.062Z,97.53
2018-03-03T11:46:49.373Z,110.93
2018-03-03T11:49:18.663Z,106.57
2018-03-03T11:51:48.698Z,87.90
2018-03-03T11:54:17.983Z,111.07
2018-03-03T11:56:47.234Z,106.67
2018-03-03T11:59:16.507Z,108.10
2018-03-03T12:01:45.784Z,105.47
2018-03-03T12:04:15.194Z,86.47
2018-03-03T12:06:44.667Z,88.10
2018-03-03T12:09:14.007Z,87.27
2018-03-03T12:11:43.264Z,80.27
2018-03-03T12:14:12.657Z,83.10
2018-03-03T12:16:42.201Z,91.23
2018-03-03T12:19:12.216Z,82.57
2018-03-03T12:21:41.496Z,84.77
2018-03-03T12:24:10.752Z,72.17
2018-03-03T12:26:40.176Z,84.07
2018-03-03T12:29:09.441Z,77.20
2018-03-03T12:31:38.849Z,79.83
2018-03-03T12:34:08.139Z,63.23
2018-03-03T12:36:37.446Z,82.57
2018-03-03T12:39:06.719Z,85.87
2018-03-03T12:41:35.998Z,69.30
2018-03-03T12:44:06.428Z,75.50
2018-03-03T12:46:36.433Z,70.43
2018-03-03T12:49:05.788Z,69.50
2018-03-03T12:51:35.836Z,75.10
2018-03-03T12:54:05.085Z,83.67
2018-03-03T12:56:34.369Z,72.40
2018-03-03T12:59:03.688Z,80.47
2018-03-03T13:01:32.946Z,77.53
2018-03-03T13:04:03.017Z,73.00
2018-03-03T13:06:32.278Z,76.70
2018-03-03T13:09:01.546Z,82.20
2018-03-03T13:11:30.877Z,77.23
2018-03-03T13:14:00.167Z,72.93
2018-03-03T13:16:29.431Z,68.93
2018-03-03T13:18:58.713Z,76.37
2018-03-03T13:21:29.507Z,76.47
2018-03-03T13:23:58.770Z,73.33
2018-03-03T13:26:28.058Z,84.07
2018-03-03T13:28:57.324Z,81.57
2018-03-03T13:31:26.609Z,71.97
2018-03-03T13:33:55.862Z,71.87
2018-03-03T13:36:25.168Z,81.10
2018-03-03T13:38:54.425Z,90.23
2018-03-03T13:41:23.703Z,81.63
2018-03-03T13:43:52.958Z,84.70
2018-03-03T13:46:22.213Z,71.33
2018-03-03T13:48:51.600Z,78.33
2018-03-03T13:51:20.873Z,67.50
2018-03-03T13:53:50.177Z,84.67
2018-03-03T13:56:27.609Z,62.23
2018-03-03T13:58:57.635Z,87.30
2018-03-03T14:01:26.914Z,84.83
2018-03-03T14:03:56.925Z,76.33
2018-03-03T14:06:26.221Z,63.23
2018-03-03T14:08:56.353Z,77.43
2018-03-03T14:11:25.723Z,70.00
2018-03-03T14:13:54.943Z,79.57
2018-03-03T14:16:24.697Z,63.33
2018-03-03T14:18:54.024Z,86.03
2018-03-03T14:21:23.310Z,65.47
2018-03-03T14:23:52.574Z,70.27
2018-03-03T14:26:21.938Z,62.07
2018-03-03T14:28:51.203Z,65.23
2018-03-03T14:31:20.519Z,92.35
2018-03-03T14:33:49.772Z,75.37
2018-03-03T14:36:19.088Z,85.60
2018-03-03T14:38:48.324Z,77.70
2018-03-03T14:41:17.600Z,73.27
2018-03-03T14:43:46.850Z,72.87
2018-03-03T14:46:16.111Z,80.17
2018-03-03T14:48:45.387Z,74.50
2018-03-03T14:51:14.692Z,66.43
2018-03-03T14:53:43.987Z,56.50
2018-03-03T14:56:13.251Z,62.63
2018-03-03T14:58:42.518Z,59.30
2018-03-03T15:01:11.799Z,57.10
2018-03-03T15:03:41.070Z,80.53
2018-03-03T15:06:10.326Z,87.07
2018-03-03T15:08:39.632Z,82.80
2018-03-03T15:11:08.890Z,77.97
2018-03-03T15:13:38.176Z,76.80
2018-03-03T15:16:07.498Z,71.73
2018-03-03T15:18:37.075Z,87.23
2018-03-03T15:21:06.336Z,72.10
2018-03-03T15:23:35.731Z,78.03
2018-03-03T15:26:05.776Z,62.13
2018-03-03T15:28:35.063Z,74.13
2018-03-03T15:31:04.325Z,72.23
2018-03-03T15:33:33.600Z,86.13
2018-03-03T15:36:02.861Z,77.13
2018-03-03T15:38:32.139Z,73.27
2018-03-03T15:41:01.537Z,77.37
2018-03-03T15:43:30.828Z,80.37
2018-03-03T15:46:00.101Z,69.80
2018-03-03T15:48:29.379Z,72.07
2018-03-03T15:50:58.643Z,70.50
2018-03-03T15:53:27.951Z,70.07
2018-03-03T15:55:58.010Z,69.47
2018-03-03T15:58:27.320Z,77.53
2018-03-03T16:00:56.590Z,83.93
2018-03-03T16:03:25.872Z,79.73
2018-03-03T16:05:55.179Z,90.80
2018-03-03T16:08:24.558Z,72.47
2018-03-03T16:10:53.806Z,77.03
2018-03-03T16:13:23.085Z,70.60
2018-03-03T16:15:52.441Z,69.60
2018-03-03T16:18:21.770Z,79.00
2018-03-03T16:20:51.110Z,85.57
2018-03-03T16:23:21.138Z,55.20
2018-03-03T16:25:50.407Z,64.77
2018-03-03T16:28:20.482Z,88.53
2018-03-03T16:30:49.737Z,78.10
2018-03-03T16:33:19.790Z,84.73
2018-03-03T16:35:49.074Z,76.13
2018-03-03T16:38:18.340Z,81.77
2018-03-03T16:40:47.630Z,80.27
2018-03-03T16:43:16.901Z,75.07
2018-03-03T16:45:46.196Z,78.83
2018-03-03T16:48:16.164Z,83.20
2018-03-03T16:50:45.456Z,76.60
2018-03-03T16:53:15.246Z,89.40
2018-03-03T16:55:44.557Z,73.60
2018-03-03T16:58:13.890Z,82.20
2018-03-03T17:00:43.265Z,70.53
2018-03-03T17:03:12.538Z,73.50
2018-03-03T17:05:41.844Z,72.70
2018-03-03T17:08:11.148Z,70.83
2018-03-03T17:10:41.186Z,79.37
2018-03-03T17:13:10.647Z,71.03
2018-03-03T17:15:40.174Z,63.60
2018-03-03T17:18:09.478Z,68.00
2018-03-03T17:20:40.259Z,76.37
2018-03-03T17:23:09.530Z,77.50
2018-03-03T17:25:38.831Z,84.73
2018-03-03T17:28:09.548Z,72.73
2018-03-03T17:30:39.793Z,87.70
2018-03-03T17:33:09.105Z,77.57
2018-03-03T17:35:38.480Z,70.13
2018-03-03T17:38:07.946Z,82.87
2018-03-03T17:40:37.329Z,81.43
2018-03-03T17:43:06.650Z,65.93
2018-03-03T17:45:36.018Z,67.57
2018-03-03T17:48:05.364Z,71.70
2018-03-03T17:50:34.680Z,69.60
2018-03-03T17:53:03.960Z,76.97
2018-03-03T17:55:33.300Z,78.73
2018-03-03T17:58:03.345Z,69.27
2018-03-03T18:00:32.629Z,72.97
2018-03-03T18:03:02.774Z,101.83
2018-03-03T18:05:32.062Z,78.33
2018-03-03T18:08:01.561Z,81.00
2018-03-03T18:10:30.864Z,82.40
2018-03-03T18:13:02.059Z,92.20
2018-03-03T18:15:31.525Z,81.50
2018-03-03T18:18:00.766Z,81.37
2018-03-03T18:20:30.068Z,77.47
2018-03-03T18:22:59.332Z,79.17
2018-03-03T18:25:28.620Z,83.00
2018-03-03T18:27:57.952Z,78.67
2018-03-03T18:30:27.265Z,79.97
2018-03-03T18:32:57.549Z,103.37
2018-03-03T18:35:26.824Z,91.63
2018-03-03T18:37:56.123Z,83.53
2018-03-03T18:40:25.419Z,82.20
2018-03-03T18:42:54.853Z,88.53
2018-03-03T18:45:24.215Z,95.83
2018-03-03T18:47:53.498Z,78.40
2018-03-03T18:50:22.827Z,93.07
2018-03-03T18:52:52.928Z,105.00
2018-03-03T18:55:22.307Z,92.20
2018-03-03T18:57:51.617Z,94.87
2018-03-03T19:00:20.928Z,85.47
2018-03-03T19:02:50.252Z,91.70
2018-03-03T19:05:19.583Z,93.27
2018-03-03T19:07:48.964Z,104.70
2018-03-03T19:10:19.061Z,88.30
2018-03-03T19:12:48.452Z,93.77
2018-03-03T19:15:17.924Z,89.63
2018-03-03T19:17:47.237Z,94.07
2018-03-03T19:20:16.526Z,87.57
2018-03-03T19:22:46.601Z,97.53
2018-03-03T19:25:15.995Z,93.60
2018-03-03T19:27:45.305Z,83.03
2018-03-03T19:30:14.611Z,84.83
2018-03-03T19:32:43.959Z,82.70
2018-03-03T19:35:14.043Z,84.17
2018-03-03T19:37:45.422Z,79.77
2018-03-03T19:40:14.889Z,92.57
2018-03-03T19:42:44.174Z,78.67
2018-03-03T19:45:13.550Z,93.67
2018-03-03T19:47:43.411Z,96.77
2018-03-03T19:50:12.818Z,91.50
2018-03-03T19:52:42.059Z,95.60
2018-03-03T19:55:11.367Z,82.00
2018-03-03T19:57:40.712Z,85.77
2018-03-03T20:00:10.376Z,97.60
2018-03-03T20:02:39.812Z,101.93
2018-03-03T20:05:09.516Z,108.23
2018-03-03T20:07:38.835Z,86.53
2018-03-03T20:10:08.376Z,103.97
2018-03-03T20:12:37.696Z,93.90
2018-03-03T20:15:07.110Z,86.67
2018-03-03T20:17:36.457Z,93.40
2018-03-03T20:20:05.843Z,98.30
2018-03-03T20:22:35.512Z,106.67
2018-03-03T20:25:04.768Z,90.90
2018-03-03T20:27:34.155Z,126.03
2018-03-03T20:30:03.675Z,104.27
2018-03-03T20:32:33.060Z,111.17
2018-03-03T20:35:02.449Z,115.87
2018-03-03T20:37:31.816Z,114.17
2018-03-03T20:40:01.073Z,108.97
2018-03-03T20:42:31.041Z,111.30
2018-03-03T20:45:00.445Z,104.43
2018-03-03T20:47:29.746Z,108.57
2018-03-03T20:49:59.117Z,128.83
2018-03-03T20:52:29.289Z,111.10
2018-03-03T20:54:58.594Z,109.67
2018-03-03T20:57:27.955Z,107.00
2018-03-03T20:59:57.280Z,110.20
2018-03-03T21:02:26.608Z,131.83
2018-03-03T21:04:56.169Z,117.17
2018-03-03T21:07:25.539Z,103.67
2018-03-03T21:09:54.900Z,105.07
2018-03-03T21:12:39.146Z,108.93
2018-03-03T21:15:09.233Z,122.07
2018-03-03T21:17:38.585Z,113.23
2018-03-03T21:20:08.653Z,122.70
2018-03-03T21:22:38.277Z,123.17
2018-03-03T21:25:07.731Z,112.30
2018-03-03T21:27:37.250Z,120.60
2018-03-03T21:30:06.541Z,119.33
2018-03-03T21:32:36.033Z,141.77
2018-03-03T21:35:05.362Z,125.57
2018-03-03T21:37:34.636Z,124.80
2018-03-03T21:40:04.795Z,113.07
2018-03-03T21:42:34.144Z,123.67
2018-03-03T21:45:03.437Z,115.97
2018-03-03T21:47:32.788Z,123.17
2018-03-03T21:50:02.141Z,139.73
2018-03-03T21:52:31.429Z,127.57
2018-03-03T21:55:01.608Z,130.57
2018-03-03T21:57:31.365Z,127.83
2018-03-03T22:00:00.783Z,118.07
2018-03-03T22:02:30.291Z,97.30
2018-03-03T22:04:59.526Z,118.73
2018-03-03T22:07:28.896Z,112.77
2018-03-03T22:09:58.238Z,115.67
2018-03-03T22:12:27.676Z,131.93
2018-03-03T22:14:57.746Z,140.50
2018-03-03T22:17:27.004Z,143.03
2018-03-03T22:19:56.281Z,122.03
2018-03-03T22:22:25.750Z,117.33
2018-03-03T22:24:55.066Z,113.93
2018-03-03T22:27:24.321Z,115.67
2018-03-03T22:29:54.361Z,131.23
2018-03-03T22:32:23.648Z,140.33
2018-03-03T22:34:52.983Z,140.60
2018-03-03T22:37:22.331Z,128.47
2018-03-03T22:39:52.460Z,133.40
2018-03-03T22:42:21.732Z,124.87
2018-03-03T22:44:51.044Z,145.97
2018-03-03T22:47:21.098Z,124.00
2018-03-03T22:49:50.371Z,116.63
2018-03-03T22:52:19.897Z,116.13
2018-03-03T22:54:49.267Z,120.17
2018-03-03T22:57:18.581Z,126.63
2018-03-03T22:59:48.799Z,113.90
2018-03-03T23:02:18.126Z,115.93
2018-03-03T23:04:47.386Z,128.30
2018-03-03T23:07:18.178Z,127.83
2018-03-03T23:09:47.661Z,102.70
2018-03-03T23:12:16.926Z,113.00
2018-03-03T23:14:46.182Z,115.70
2018-03-03T23:17:15.498Z,122.10
2018-03-03T23:19:44.776Z,111.03
2018-03-03T23:22:14.083Z,120.73
2018-03-03T23:24:43.455Z,119.87
2018-03-03T23:27:12.738Z,113.97
2018-03-03T23:29:42.021Z,115.67
2018-03-03T23:32:11.364Z,108.53
2018-03-03T23:34:40.679Z,107.87
2018-03-03T23:37:10.002Z,115.87
2018-03-03T23:39:40.045Z,120.93
2018-03-03T23:42:09.349Z,115.20
2018-03-03T23:44:38.794Z,124.00
2018-03-03T23:47:19.615Z,108.80
2018-03-03T23:49:48.870Z,115.30
2018-03-03T23:52:18.925Z,120.13
2018-03-03T23:54:48.195Z,125.37
2018-03-03T23:57:18.215Z,141.53
2018-03-03T23:59:48.495Z,107.00
